Time;durP1;ratioP1;P1;durP2;ratioP2;P2;SDS_P1;SDS_P2;PMS_P1;PMS_P2;Temp;Humidity;BMP_temperature;BMP_pressure;BME280_temperature;BME280_humidity;BME280_pressure;Samples;Min_cycle;Max_cycle;Signal;HPM_P1;HPM_P2
2022/03/10 00:05:32;;;;;;;15.70;10.50;;;;;;;0.76;66.18;100721.59;430076;1270;141535;-61
2022/03/10 00:15:38;;;;;;;12.40;9.20;;;;;;;0.64;66.01;100736.63;433182;1270;142306;-61
2022/03/10 00:25:44;;;;;;;12.10;8.70;;;;;;;0.31;65.72;100755.36;438979;1272;142042;-60
2022/03/10 00:35:50;;;;;;;11.40;8.10;;;;;;;0.02;65.59;100758.52;431226;1273;141236;-60
2022/03/10 00:45:56;;;;;;;10.90;7.40;;;;;;;-0.22;65.77;100773.18;431745;1270;141613;-61
2022/03/10 00:56:02;;;;;;;12.30;7.80;;;;;;;-0.34;65.86;100790.91;430759;1271;142093;-61
2022/03/10 01:06:08;;;;;;;10.30;7.00;;;;;;;-0.60;65.97;100809.11;430670;1271;142902;-63
2022/03/10 01:16:14;;;;;;;10.20;5.70;;;;;;;-1.16;65.38;100829.23;430527;1273;197386;-61
2022/03/10 01:26:20;;;;;;;6.00;5.00;;;;;;;-1.68;65.59;100839.27;431248;1273;141970;-62
2022/03/10 01:36:26;;;;;;;8.20;5.40;;;;;;;-2.07;66.25;100857.02;430159;1271;145592;-61
2022/03/10 01:46:32;;;;;;;9.70;5.90;;;;;;;-2.39;66.66;100873.35;430449;1270;141620;-60
2022/03/10 01:56:38;;;;;;;8.30;5.30;;;;;;;-2.63;67.22;100878.77;433393;1273;142294;-60
2022/03/10 02:06:43;;;;;;;;;;;;;;;-2.82;67.80;100891.58;431888;1271;142085;-61
2022/03/10 02:27:21;;;;;;;10.30;5.50;;;;;;;-3.20;68.43;100892.99;429579;1270;142086;-61
2022/03/10 02:37:27;;;;;;;7.90;6.20;;;;;;;-3.32;68.76;100906.35;430877;1271;142035;-61
2022/03/10 02:47:33;;;;;;;8.40;5.30;;;;;;;-3.48;68.92;100915.89;430217;1273;142612;-60
2022/03/10 02:57:39;;;;;;;6.10;4.90;;;;;;;-3.58;69.32;100926.52;429631;1270;142672;-61
2022/03/10 03:07:45;;;;;;;7.80;5.90;;;;;;;-3.68;69.56;100939.89;430573;1270;141797;-60
2022/03/10 03:17:51;;;;;;;9.60;5.70;;;;;;;-3.84;69.86;100956.21;430635;1271;142374;-63
2022/03/10 03:27:57;;;;;;;9.80;6.30;;;;;;;-3.86;70.26;100972.46;431578;1271;141602;-61
2022/03/10 03:38:03;;;;;;;11.10;6.30;;;;;;;-3.91;70.40;100988.77;431093;1271;144954;-61
2022/03/10 03:48:07;;;;;;;;;;;;;;;-4.00;70.88;100996.84;431830;1271;142870;-63
2022/03/10 03:58:13;;;;;;;12.10;7.50;;;;;;;-4.07;71.12;101006.80;430648;1271;186435;-62
2022/03/10 04:08:21;;;;;;;9.50;7.40;;;;;;;-4.21;71.25;101030.48;431031;1271;141362;-62
2022/03/10 04:18:26;;;;;;;10.40;7.60;;;;;;;-4.31;71.38;101038.99;431154;1271;142680;-61
2022/03/10 04:28:32;;;;;;;9.70;7.10;;;;;;;-4.41;71.58;101044.44;432321;1270;143131;-61
2022/03/10 04:38:38;;;;;;;9.00;7.30;;;;;;;-4.51;71.82;101060.13;430363;1271;142570;-61
2022/03/10 04:48:44;;;;;;;11.50;6.80;;;;;;;-4.60;72.09;101066.77;429629;1271;142659;-61
2022/03/10 04:58:50;;;;;;;12.80;7.40;;;;;;;-4.69;72.22;101082.14;430540;1271;142320;-61
2022/03/10 05:08:56;;;;;;;12.30;7.70;;;;;;;-4.70;72.12;101097.98;430277;1271;142759;-60
2022/03/10 05:19:01;;;;;;;12.30;8.00;;;;;;;-4.69;72.14;101116.30;429449;1271;142207;-62
2022/03/10 05:29:07;;;;;;;12.50;8.40;;;;;;;-4.66;71.97;101130.70;430784;1271;142483;-60
2022/03/10 05:39:16;;;;;;;10.90;6.70;;;;;;;-4.54;71.58;101147.56;429662;1271;143224;-61
2022/03/10 05:49:23;;;;;;;9.70;6.80;;;;;;;-4.35;70.82;101162.36;430654;1271;142726;-64
2022/03/10 05:59:29;;;;;;;12.10;8.60;;;;;;;-3.71;70.32;101173.25;430636;1271;142053;-60
2022/03/10 06:09:35;;;;;;;8.90;7.10;;;;;;;0.13;67.62;101186.60;429657;1271;142246;-62
2022/03/10 06:19:40;;;;;;;10.70;8.00;;;;;;;5.85;60.55;101192.52;430762;1271;143020;-61
2022/03/10 06:29:47;;;;;;;10.90;7.90;;;;;;;8.99;53.77;101198.50;430411;1271;141620;-60
2022/03/10 06:39:53;;;;;;;8.20;6.80;;;;;;;12.00;49.12;101199.02;430196;1271;141145;-61
2022/03/10 06:49:59;;;;;;;7.50;5.20;;;;;;;14.62;44.49;101203.50;430557;1271;141621;-62
2022/03/10 07:00:07;;;;;;;8.30;5.80;;;;;;;15.96;40.58;101208.92;430820;1271;141599;-61
2022/03/10 07:10:12;;;;;;;;;;;;;;;17.00;36.92;101210.45;431852;1271;141123;-64
2022/03/10 07:20:18;;;;;;;5.70;4.30;;;;;;;18.25;34.45;101217.63;431857;1271;128455;-64
2022/03/10 07:30:25;;;;;;;6.50;4.00;;;;;;;18.60;31.82;101231.34;435822;1270;142438;-66
2022/03/10 07:40:30;;;;;;;5.00;4.20;;;;;;;19.20;30.17;101233.62;431522;1273;141068;-66
2022/03/10 07:50:37;;;;;;;5.30;4.40;;;;;;;19.66;27.97;101242.62;432931;1270;140773;-63
2022/03/10 08:00:43;;;;;;;5.40;4.70;;;;;;;19.65;27.08;101248.00;430443;1271;141212;-65
2022/03/10 08:10:50;;;;;;;5.00;4.50;;;;;;;22.00;26.54;101244.91;431599;1270;142243;-65
2022/03/10 08:20:56;;;;;;;7.40;4.40;;;;;;;22.73;24.44;101247.66;430703;1270;140506;-67
2022/03/10 08:31:04;;;;;;;4.40;3.10;;;;;;;22.34;23.63;101249.25;430184;1270;695731;-65
2022/03/10 08:41:11;;;;;;;7.00;3.50;;;;;;;20.77;22.02;101257.04;431522;1270;141463;-64
2022/03/10 08:51:17;;;;;;;4.40;3.00;;;;;;;20.46;21.97;101244.48;430613;1271;140665;-69
2022/03/10 09:01:23;;;;;;;3.70;3.40;;;;;;;21.04;21.16;101248.92;431590;1270;141916;-65
2022/03/10 09:11:30;;;;;;;5.30;3.50;;;;;;;20.93;20.80;101240.17;434624;1270;140366;-60
2022/03/10 09:21:36;;;;;;;5.80;3.90;;;;;;;15.97;21.04;101253.14;431808;1270;141347;-74
2022/03/10 09:31:42;;;;;;;5.20;3.60;;;;;;;9.09;24.15;101263.73;432044;1270;141402;-66
2022/03/10 09:41:49;;;;;;;11.10;6.40;;;;;;;5.90;26.62;101275.02;431035;1270;141132;-65
2022/03/10 09:51:56;;;;;;;4.70;3.60;;;;;;;4.25;28.04;101282.71;431379;1270;141593;-67
2022/03/10 10:02:04;;;;;;;4.50;3.60;;;;;;;2.95;30.20;101288.06;431318;1270;142623;-67
2022/03/10 10:12:14;;;;;;;7.40;4.00;;;;;;;2.35;31.17;101296.27;430184;1270;142810;-60
2022/03/10 10:22:23;;;;;;;7.10;3.60;;;;;;;1.77;31.84;101299.97;431519;1270;140749;-62
2022/03/10 10:32:35;;;;;;;3.80;3.20;;;;;;;1.48;32.59;101303.91;431494;1270;140503;-62
2022/03/10 10:42:42;;;;;;;6.80;4.50;;;;;;;1.13;33.15;101308.15;430261;1271;144162;-61
2022/03/10 10:52:48;;;;;;;5.20;4.00;;;;;;;0.52;33.79;101315.34;432246;1270;140686;-74
2022/03/10 11:02:53;;;;;;;11.60;5.00;;;;;;;0.38;34.63;101326.27;434669;1270;141989;-75
2022/03/10 11:13:00;;;;;;;4.40;3.70;;;;;;;0.39;35.23;101328.70;432706;1270;141339;-66
2022/03/10 11:23:15;;;;;;;7.30;4.10;;;;;;;0.29;34.90;101334.85;431136;1270;140729;-68
2022/03/10 11:33:22;;;;;;;5.30;3.50;;;;;;;0.24;34.85;101330.84;430771;1270;142063;-68
2022/03/10 11:43:36;;;;;;;5.50;3.40;;;;;;;0.30;34.50;101329.34;431400;1270;143642;-64
2022/03/10 11:54:04;;;;;;;5.80;4.10;;;;;;;0.35;34.44;101321.78;432049;1270;140386;-73
2022/03/10 12:04:17;;;;;;;7.80;4.80;;;;;;;0.23;34.27;101322.05;432897;1270;141815;-72
2022/03/10 12:14:31;;;;;;;7.80;3.90;;;;;;;0.24;34.48;101323.95;433142;1270;140935;-64
2022/03/10 12:24:37;;;;;;;8.90;4.00;;;;;;;0.22;33.84;101316.54;431775;1270;140336;-74
2022/03/10 12:34:46;;;;;;;5.80;3.40;;;;;;;0.31;34.07;101311.77;435181;1270;140607;-75
2022/03/10 12:44:54;;;;;;;8.00;3.20;;;;;;;0.31;33.51;101302.30;432266;1270;141034;-63
2022/03/10 12:55:00;;;;;;;7.10;4.00;;;;;;;0.44;33.33;101299.61;431803;1270;142292;-61
2022/03/10 13:05:09;;;;;;;6.40;3.10;;;;;;;0.50;33.29;101306.19;431250;1270;142990;-71
2022/03/10 13:15:22;;;;;;;4.50;3.00;;;;;;;0.57;32.93;101311.73;432075;1270;140334;-66
2022/03/10 13:25:34;;;;;;;6.80;3.70;;;;;;;0.62;32.84;101299.87;432685;1270;142913;-66
2022/03/10 13:35:42;;;;;;;4.40;3.50;;;;;;;0.61;32.84;101303.99;432088;1270;141418;-61
2022/03/10 13:45:53;;;;;;;6.50;3.00;;;;;;;0.64;33.27;101298.84;432491;1270;142849;-75
2022/03/10 13:56:00;;;;;;;6.60;4.10;;;;;;;0.63;33.26;101290.56;433045;1270;142604;-73
2022/03/10 14:06:06;;;;;;;8.00;3.30;;;;;;;0.63;33.03;101290.91;434700;1270;140567;-75
2022/03/10 14:16:16;;;;;;;5.30;3.30;;;;;;;0.59;33.36;101289.69;431568;1270;140833;-74
2022/03/10 14:26:22;;;;;;;4.00;2.90;;;;;;;0.57;32.65;101289.49;431440;1269;140232;-73
2022/03/10 14:36:28;;;;;;;5.20;3.00;;;;;;;0.54;32.51;101288.63;430614;1270;140937;-73
2022/03/10 14:46:36;;;;;;;6.80;4.00;;;;;;;0.50;32.51;101285.33;431986;1270;142015;-73
2022/03/10 14:56:43;;;;;;;5.00;3.50;;;;;;;0.52;33.17;101278.11;431155;1270;142209;-74
2022/03/10 15:06:49;;;;;;;5.30;4.00;;;;;;;0.45;33.20;101281.52;431577;1270;141427;-72
2022/03/10 15:17:15;;;;;;;9.10;4.20;;;;;;;0.36;33.51;101285.61;430911;1272;140368;-74
2022/03/10 15:27:22;;;;;;;5.00;3.70;;;;;;;0.26;34.32;101293.30;431956;1271;141475;-74
2022/03/10 15:37:28;;;;;;;6.40;4.10;;;;;;;0.13;34.62;101289.94;430877;1271;139796;-74
2022/03/10 15:47:36;;;;;;;9.40;4.50;;;;;;;-0.00;35.15;101296.75;432262;1273;143263;-73
2022/03/10 15:57:43;;;;;;;4.90;3.30;;;;;;;-0.19;35.79;101303.49;431559;1272;140528;-74
2022/03/10 16:07:49;;;;;;;7.60;4.20;;;;;;;-0.38;36.03;101305.05;433000;1273;141441;-75
2022/03/10 16:17:55;;;;;;;4.70;4.10;;;;;;;-0.58;36.41;101308.14;434401;1271;141063;-73
2022/03/10 16:28:03;;;;;;;7.20;5.20;;;;;;;-0.82;36.41;101318.21;433165;1270;140720;-74
2022/03/10 16:38:10;;;;;;;9.30;5.60;;;;;;;-1.07;36.83;101327.38;434490;1271;143015;-72
2022/03/10 16:48:17;;;;;;;9.70;6.50;;;;;;;-1.33;37.31;101329.14;430272;1271;141228;-75
2022/03/10 16:58:25;;;;;;;19.60;11.00;;;;;;;-1.59;37.94;101335.30;431191;1271;140829;-75
2022/03/10 17:08:31;;;;;;;15.10;9.70;;;;;;;-1.81;38.44;101337.91;432464;1271;142333;-74
2022/03/10 17:18:37;;;;;;;14.30;8.10;;;;;;;-2.06;39.14;101350.21;430425;1271;141039;-74
2022/03/10 17:28:44;;;;;;;15.00;9.20;;;;;;;-2.15;39.66;101344.59;431107;1271;141433;-75
2022/03/10 17:38:49;;;;;;;13.40;8.40;;;;;;;-2.38;40.17;101357.58;432236;1271;141481;-74
2022/03/10 17:48:55;;;;;;;12.50;8.10;;;;;;;-2.43;40.87;101361.11;432045;1270;141076;-76
2022/03/10 17:59:01;;;;;;;12.80;6.60;;;;;;;-2.48;41.13;101361.69;434147;1273;141485;-75
2022/03/10 18:09:08;;;;;;;19.20;11.00;;;;;;;-2.57;41.27;101371.65;433245;1271;141437;-73
2022/03/10 18:19:14;;;;;;;13.70;9.40;;;;;;;-2.64;41.75;101382.83;430573;1271;142207;-61
2022/03/10 18:29:19;;;;;;;;;;;;;;;-2.67;42.09;101382.59;432191;1270;145212;-66
2022/03/10 18:39:26;;;;;;;17.20;9.20;;;;;;;-2.76;42.32;101386.04;432781;1268;127689;-68
2022/03/10 18:49:33;;;;;;;15.90;10.70;;;;;;;-2.88;42.80;101396.25;431290;1270;142417;-64
2022/03/10 18:59:39;;;;;;;17.00;10.00;;;;;;;-2.99;43.20;101404.58;431160;1270;141885;-64
2022/03/10 19:09:47;;;;;;;27.10;12.70;;;;;;;-3.15;43.56;101407.86;430520;1270;142009;-65
2022/03/10 19:19:53;;;;;;;30.40;14.40;;;;;;;-3.36;43.52;101413.21;432132;1270;142678;-64
2022/03/10 19:29:59;;;;;;;25.60;12.70;;;;;;;-3.41;43.42;101418.25;430438;1270;141675;-63
2022/03/10 19:40:07;;;;;;;16.20;10.60;;;;;;;-3.46;43.33;101417.61;431364;1270;142156;-62
2022/03/10 19:50:14;;;;;;;17.60;9.70;;;;;;;-3.56;43.40;101421.65;430692;1270;145214;-63
2022/03/10 20:00:20;;;;;;;16.30;7.90;;;;;;;-3.74;43.69;101422.10;430883;1270;142160;-64
2022/03/10 20:10:26;;;;;;;14.20;10.40;;;;;;;-3.91;43.95;101424.24;430506;1271;140814;-63
2022/03/10 20:20:33;;;;;;;15.40;8.50;;;;;;;-3.98;44.12;101428.01;430429;1270;141557;-64
2022/03/10 20:30:42;;;;;;;13.20;8.30;;;;;;;-4.19;44.47;101432.27;430363;1271;868478;-64
2022/03/10 20:40:48;;;;;;;13.00;8.70;;;;;;;-4.23;44.83;101444.64;431824;1271;141655;-63
2022/03/10 20:50:54;;;;;;;13.60;8.00;;;;;;;-4.28;45.18;101449.30;430623;1271;141127;-63
2022/03/10 21:01:00;;;;;;;13.90;8.60;;;;;;;-4.36;45.51;101451.99;430694;1270;195898;-66
2022/03/10 21:11:05;;;;;;;;;;;;;;;-4.46;46.01;101458.73;432641;1270;142605;-64
2022/03/10 21:21:13;;;;;;;16.30;7.90;;;;;;;-4.62;46.34;101452.98;430333;1271;148551;-64
2022/03/10 21:31:18;;;;;;;13.70;8.40;;;;;;;-4.75;46.78;101453.97;431932;1270;141245;-64
2022/03/10 21:41:23;;;;;;;;;;;;;;;-4.85;47.22;101462.77;431505;1271;140833;-62
2022/03/10 21:51:29;;;;;;;14.50;8.60;;;;;;;-4.92;47.74;101464.27;431050;1270;127047;-63
2022/03/10 22:01:35;;;;;;;14.80;8.70;;;;;;;-5.09;47.89;101466.14;431802;1271;141970;-65
2022/03/10 22:11:41;;;;;;;15.30;9.90;;;;;;;-5.29;48.32;101459.23;433529;1271;140929;-62
2022/03/10 22:21:47;;;;;;;15.70;9.50;;;;;;;-5.37;48.80;101453.67;430156;1271;141689;-64
2022/03/10 22:31:52;;;;;;;;;;;;;;;-5.44;49.12;101455.66;431184;1271;143715;-63
2022/03/10 22:41:58;;;;;;;16.40;9.70;;;;;;;-5.59;49.63;101456.77;430683;1271;126863;-64
2022/03/10 23:02:26;;;;;;;19.70;10.50;;;;;;;-5.72;50.26;101452.06;430680;1271;127701;-63
2022/03/10 23:12:32;;;;;;;14.60;9.00;;;;;;;-5.83;50.47;101444.38;429464;1271;141570;-62
2022/03/10 23:22:42;;;;;;;17.70;9.70;;;;;;;-5.97;51.00;101447.48;432062;1270;141886;-63
2022/03/10 23:32:48;;;;;;;19.00;9.50;;;;;;;-6.01;51.31;101448.72;430681;1271;141356;-63
2022/03/10 23:42:54;;;;;;;14.60;8.70;;;;;;;-6.12;51.56;101446.66;430836;1271;140896;-64
2022/03/10 23:53:00;;;;;;;14.60;9.90;;;;;;;-6.20;52.03;101449.63;430769;1271;142660;-63
